sensor_id;sensor_type;location;lat;lon;timestamp;P1;durP1;ratioP1;P2;durP2;ratioP2
67715;SDS011;54508;43.238;25.306;2022-12-17T00:01:49;8.33;;;5.83;;
67715;SDS011;54508;43.238;25.306;2022-12-17T00:04:33;8.48;;;6.18;;
67715;SDS011;54508;43.238;25.306;2022-12-17T00:07:18;7.72;;;5.30;;
67715;SDS011;54508;43.238;25.306;2022-12-17T00:10:02;9.27;;;6.28;;
67715;SDS011;54508;43.238;25.306;2022-12-17T00:12:47;9.02;;;6.32;;
67715;SDS011;54508;43.238;25.306;2022-12-17T00:15:31;9.30;;;6.20;;
67715;SDS011;54508;43.238;25.306;2022-12-17T00:18:15;8.82;;;6.15;;
67715;SDS011;54508;43.238;25.306;2022-12-17T00:21:00;9.38;;;6.13;;
67715;SDS011;54508;43.238;25.306;2022-12-17T00:23:44;8.55;;;5.70;;
67715;SDS011;54508;43.238;25.306;2022-12-17T00:26:29;8.35;;;6.10;;
67715;SDS011;54508;43.238;25.306;2022-12-17T00:29:13;8.87;;;5.83;;
67715;SDS011;54508;43.238;25.306;2022-12-17T00:31:57;9.15;;;6.53;;
67715;SDS011;54508;43.238;25.306;2022-12-17T00:34:41;9.65;;;6.95;;
67715;SDS011;54508;43.238;25.306;2022-12-17T00:37:26;8.25;;;6.15;;
67715;SDS011;54508;43.238;25.306;2022-12-17T00:40:11;8.05;;;5.95;;
67715;SDS011;54508;43.238;25.306;2022-12-17T00:43:01;8.77;;;6.03;;
67715;SDS011;54508;43.238;25.306;2022-12-17T00:45:47;8.57;;;6.22;;
67715;SDS011;54508;43.238;25.306;2022-12-17T00:48:32;9.30;;;6.18;;
67715;SDS011;54508;43.238;25.306;2022-12-17T00:51:22;7.70;;;5.00;;
67715;SDS011;54508;43.238;25.306;2022-12-17T00:54:06;9.32;;;6.07;;
67715;SDS011;54508;43.238;25.306;2022-12-17T00:56:51;7.90;;;5.63;;
67715;SDS011;54508;43.238;25.306;2022-12-17T00:59:34;8.65;;;5.85;;
67715;SDS011;54508;43.238;25.306;2022-12-17T01:02:18;7.85;;;5.95;;
67715;SDS011;54508;43.238;25.306;2022-12-17T01:05:02;8.60;;;5.68;;
67715;SDS011;54508;43.238;25.306;2022-12-17T01:07:47;8.60;;;6.07;;
67715;SDS011;54508;43.238;25.306;2022-12-17T01:10:31;6.50;;;5.13;;
67715;SDS011;54508;43.238;25.306;2022-12-17T01:13:15;8.02;;;5.93;;
67715;SDS011;54508;43.238;25.306;2022-12-17T01:16:01;8.70;;;5.95;;
67715;SDS011;54508;43.238;25.306;2022-12-17T01:18:46;7.82;;;5.20;;
67715;SDS011;54508;43.238;25.306;2022-12-17T01:21:30;8.27;;;5.57;;
67715;SDS011;54508;43.238;25.306;2022-12-17T01:24:14;8.97;;;5.80;;
67715;SDS011;54508;43.238;25.306;2022-12-17T01:26:58;7.65;;;5.40;;
67715;SDS011;54508;43.238;25.306;2022-12-17T01:29:42;8.82;;;5.47;;
67715;SDS011;54508;43.238;25.306;2022-12-17T01:32:26;9.25;;;5.70;;
67715;SDS011;54508;43.238;25.306;2022-12-17T01:35:10;9.27;;;5.57;;
67715;SDS011;54508;43.238;25.306;2022-12-17T01:37:54;7.73;;;5.17;;
67715;SDS011;54508;43.238;25.306;2022-12-17T01:40:38;7.72;;;5.53;;
67715;SDS011;54508;43.238;25.306;2022-12-17T01:43:33;8.32;;;5.38;;
67715;SDS011;54508;43.238;25.306;2022-12-17T01:46:18;8.70;;;5.55;;
67715;SDS011;54508;43.238;25.306;2022-12-17T01:49:03;7.55;;;5.50;;
67715;SDS011;54508;43.238;25.306;2022-12-17T01:51:47;7.27;;;5.10;;
67715;SDS011;54508;43.238;25.306;2022-12-17T01:54:33;6.25;;;4.65;;
67715;SDS011;54508;43.238;25.306;2022-12-17T01:57:17;7.45;;;5.22;;
67715;SDS011;54508;43.238;25.306;2022-12-17T02:00:06;7.65;;;5.05;;
67715;SDS011;54508;43.238;25.306;2022-12-17T02:03:02;7.38;;;5.35;;
67715;SDS011;54508;43.238;25.306;2022-12-17T02:06:39;7.20;;;4.93;;
67715;SDS011;54508;43.238;25.306;2022-12-17T02:09:19;7.50;;;5.25;;
67715;SDS011;54508;43.238;25.306;2022-12-17T02:15:18;8.57;;;4.82;;
67715;SDS011;54508;43.238;25.306;2022-12-17T02:18:10;7.47;;;5.50;;
67715;SDS011;54508;43.238;25.306;2022-12-17T02:21:01;7.47;;;5.20;;
67715;SDS011;54508;43.238;25.306;2022-12-17T02:26:49;8.23;;;5.70;;
67715;SDS011;54508;43.238;25.306;2022-12-17T02:29:43;7.70;;;5.10;;
67715;SDS011;54508;43.238;25.306;2022-12-17T02:32:29;7.20;;;4.82;;
67715;SDS011;54508;43.238;25.306;2022-12-17T02:35:16;7.57;;;4.80;;
67715;SDS011;54508;43.238;25.306;2022-12-17T02:38:18;8.18;;;4.63;;
67715;SDS011;54508;43.238;25.306;2022-12-17T02:41:04;7.82;;;5.53;;
67715;SDS011;54508;43.238;25.306;2022-12-17T02:43:49;7.07;;;5.03;;
67715;SDS011;54508;43.238;25.306;2022-12-17T02:46:34;7.45;;;5.43;;
67715;SDS011;54508;43.238;25.306;2022-12-17T02:49:18;6.67;;;5.03;;
67715;SDS011;54508;43.238;25.306;2022-12-17T02:52:02;6.15;;;4.57;;
67715;SDS011;54508;43.238;25.306;2022-12-17T02:54:47;6.32;;;4.97;;
67715;SDS011;54508;43.238;25.306;2022-12-17T02:57:47;8.45;;;4.85;;
67715;SDS011;54508;43.238;25.306;2022-12-17T03:00:31;6.05;;;4.50;;
67715;SDS011;54508;43.238;25.306;2022-12-17T03:03:15;6.00;;;4.50;;
67715;SDS011;54508;43.238;25.306;2022-12-17T03:05:59;5.93;;;4.32;;
67715;SDS011;54508;43.238;25.306;2022-12-17T03:08:43;8.05;;;5.30;;
67715;SDS011;54508;43.238;25.306;2022-12-17T03:11:28;6.57;;;4.68;;
67715;SDS011;54508;43.238;25.306;2022-12-17T03:14:12;6.70;;;4.30;;
67715;SDS011;54508;43.238;25.306;2022-12-17T03:16:57;5.80;;;4.30;;
67715;SDS011;54508;43.238;25.306;2022-12-17T03:19:41;5.60;;;4.38;;
67715;SDS011;54508;43.238;25.306;2022-12-17T03:22:25;6.03;;;4.45;;
67715;SDS011;54508;43.238;25.306;2022-12-17T03:25:11;6.55;;;4.75;;
67715;SDS011;54508;43.238;25.306;2022-12-17T03:28:01;6.78;;;4.47;;
67715;SDS011;54508;43.238;25.306;2022-12-17T03:30:49;6.43;;;4.57;;
67715;SDS011;54508;43.238;25.306;2022-12-17T03:33:38;6.50;;;5.03;;
67715;SDS011;54508;43.238;25.306;2022-12-17T03:36:22;6.40;;;5.05;;
67715;SDS011;54508;43.238;25.306;2022-12-17T03:39:06;6.80;;;5.00;;
67715;SDS011;54508;43.238;25.306;2022-12-17T03:41:50;7.70;;;5.28;;
67715;SDS011;54508;43.238;25.306;2022-12-17T03:44:34;5.63;;;4.37;;
67715;SDS011;54508;43.238;25.306;2022-12-17T03:47:18;5.68;;;4.72;;
67715;SDS011;54508;43.238;25.306;2022-12-17T03:50:02;5.38;;;4.22;;
67715;SDS011;54508;43.238;25.306;2022-12-17T03:52:47;7.20;;;4.38;;
67715;SDS011;54508;43.238;25.306;2022-12-17T03:55:47;6.93;;;4.57;;
67715;SDS011;54508;43.238;25.306;2022-12-17T03:58:32;5.60;;;4.07;;
67715;SDS011;54508;43.238;25.306;2022-12-17T04:01:17;5.95;;;4.40;;
67715;SDS011;54508;43.238;25.306;2022-12-17T04:04:01;6.40;;;4.63;;
67715;SDS011;54508;43.238;25.306;2022-12-17T04:06:45;5.82;;;4.30;;
67715;SDS011;54508;43.238;25.306;2022-12-17T04:09:28;5.35;;;4.20;;
67715;SDS011;54508;43.238;25.306;2022-12-17T04:12:14;6.40;;;4.53;;
67715;SDS011;54508;43.238;25.306;2022-12-17T04:15:04;5.50;;;4.50;;
67715;SDS011;54508;43.238;25.306;2022-12-17T04:17:48;5.22;;;4.10;;
67715;SDS011;54508;43.238;25.306;2022-12-17T04:20:32;5.65;;;4.20;;
67715;SDS011;54508;43.238;25.306;2022-12-17T04:23:16;6.72;;;4.70;;
67715;SDS011;54508;43.238;25.306;2022-12-17T04:26:00;7.13;;;4.00;;
67715;SDS011;54508;43.238;25.306;2022-12-17T04:28:44;6.05;;;4.20;;
67715;SDS011;54508;43.238;25.306;2022-12-17T04:31:28;5.10;;;4.18;;
67715;SDS011;54508;43.238;25.306;2022-12-17T04:34:12;5.95;;;4.10;;
67715;SDS011;54508;43.238;25.306;2022-12-17T04:36:59;5.47;;;4.35;;
67715;SDS011;54508;43.238;25.306;2022-12-17T04:39:43;5.07;;;4.20;;
67715;SDS011;54508;43.238;25.306;2022-12-17T04:42:27;5.57;;;4.43;;
67715;SDS011;54508;43.238;25.306;2022-12-17T04:45:27;6.10;;;4.35;;
67715;SDS011;54508;43.238;25.306;2022-12-17T04:48:11;5.57;;;4.00;;
67715;SDS011;54508;43.238;25.306;2022-12-17T04:50:55;5.95;;;4.32;;
67715;SDS011;54508;43.238;25.306;2022-12-17T04:53:39;7.37;;;4.83;;
67715;SDS011;54508;43.238;25.306;2022-12-17T04:56:24;4.70;;;3.88;;
67715;SDS011;54508;43.238;25.306;2022-12-17T04:59:08;5.60;;;4.28;;
67715;SDS011;54508;43.238;25.306;2022-12-17T05:01:52;4.50;;;3.88;;
67715;SDS011;54508;43.238;25.306;2022-12-17T05:04:36;5.45;;;3.88;;
67715;SDS011;54508;43.238;25.306;2022-12-17T05:07:20;6.07;;;4.10;;
67715;SDS011;54508;43.238;25.306;2022-12-17T05:10:04;7.43;;;4.85;;
67715;SDS011;54508;43.238;25.306;2022-12-17T05:12:54;7.28;;;5.00;;
67715;SDS011;54508;43.238;25.306;2022-12-17T05:15:41;7.32;;;4.97;;
67715;SDS011;54508;43.238;25.306;2022-12-17T05:18:25;6.88;;;5.28;;
67715;SDS011;54508;43.238;25.306;2022-12-17T05:21:09;9.50;;;5.07;;
67715;SDS011;54508;43.238;25.306;2022-12-17T05:23:53;8.77;;;5.47;;
67715;SDS011;54508;43.238;25.306;2022-12-17T05:26:37;7.85;;;5.57;;
67715;SDS011;54508;43.238;25.306;2022-12-17T05:29:21;8.07;;;5.38;;
67715;SDS011;54508;43.238;25.306;2022-12-17T05:32:05;8.13;;;5.05;;
67715;SDS011;54508;43.238;25.306;2022-12-17T05:34:49;9.23;;;5.10;;
67715;SDS011;54508;43.238;25.306;2022-12-17T05:37:33;8.75;;;6.10;;
67715;SDS011;54508;43.238;25.306;2022-12-17T05:40:17;8.57;;;5.78;;
67715;SDS011;54508;43.238;25.306;2022-12-17T05:43:02;7.97;;;5.05;;
67715;SDS011;54508;43.238;25.306;2022-12-17T05:45:47;7.82;;;5.13;;
67715;SDS011;54508;43.238;25.306;2022-12-17T05:48:32;8.83;;;5.77;;
67715;SDS011;54508;43.238;25.306;2022-12-17T05:51:17;8.77;;;5.60;;
67715;SDS011;54508;43.238;25.306;2022-12-17T05:54:02;7.88;;;5.70;;
67715;SDS011;54508;43.238;25.306;2022-12-17T05:56:46;8.32;;;5.40;;
67715;SDS011;54508;43.238;25.306;2022-12-17T05:59:43;7.30;;;5.40;;
67715;SDS011;54508;43.238;25.306;2022-12-17T06:02:27;7.77;;;5.40;;
67715;SDS011;54508;43.238;25.306;2022-12-17T06:05:12;19.00;;;6.32;;
67715;SDS011;54508;43.238;25.306;2022-12-17T06:08:06;7.80;;;5.55;;
67715;SDS011;54508;43.238;25.306;2022-12-17T06:10:51;9.43;;;6.22;;
67715;SDS011;54508;43.238;25.306;2022-12-17T06:13:35;8.40;;;6.60;;
67715;SDS011;54508;43.238;25.306;2022-12-17T06:16:19;9.07;;;6.13;;
67715;SDS011;54508;43.238;25.306;2022-12-17T06:19:03;9.10;;;5.80;;
67715;SDS011;54508;43.238;25.306;2022-12-17T06:21:46;8.18;;;5.53;;
67715;SDS011;54508;43.238;25.306;2022-12-17T06:24:30;10.73;;;5.68;;
67715;SDS011;54508;43.238;25.306;2022-12-17T06:27:14;8.00;;;5.18;;
67715;SDS011;54508;43.238;25.306;2022-12-17T06:29:58;8.67;;;6.43;;
67715;SDS011;54508;43.238;25.306;2022-12-17T06:32:42;8.05;;;6.20;;
67715;SDS011;54508;43.238;25.306;2022-12-17T06:35:26;9.27;;;6.88;;
67715;SDS011;54508;43.238;25.306;2022-12-17T06:38:10;8.10;;;5.95;;
67715;SDS011;54508;43.238;25.306;2022-12-17T06:40:54;7.93;;;6.13;;
67715;SDS011;54508;43.238;25.306;2022-12-17T06:43:38;11.50;;;8.37;;
67715;SDS011;54508;43.238;25.306;2022-12-17T06:46:22;12.65;;;9.60;;
67715;SDS011;54508;43.238;25.306;2022-12-17T06:49:06;13.25;;;9.15;;
67715;SDS011;54508;43.238;25.306;2022-12-17T06:51:50;17.73;;;9.45;;
67715;SDS011;54508;43.238;25.306;2022-12-17T06:54:34;12.75;;;9.95;;
67715;SDS011;54508;43.238;25.306;2022-12-17T06:57:18;18.90;;;11.23;;
67715;SDS011;54508;43.238;25.306;2022-12-17T07:00:03;15.43;;;11.00;;
67715;SDS011;54508;43.238;25.306;2022-12-17T07:02:48;16.30;;;10.85;;
67715;SDS011;54508;43.238;25.306;2022-12-17T07:05:31;17.33;;;11.93;;
67715;SDS011;54508;43.238;25.306;2022-12-17T07:08:15;17.90;;;11.65;;
67715;SDS011;54508;43.238;25.306;2022-12-17T07:11:00;27.13;;;17.47;;
67715;SDS011;54508;43.238;25.306;2022-12-17T07:13:44;32.92;;;24.63;;
67715;SDS011;54508;43.238;25.306;2022-12-17T07:16:28;39.05;;;27.05;;
67715;SDS011;54508;43.238;25.306;2022-12-17T07:19:12;33.17;;;26.42;;
67715;SDS011;54508;43.238;25.306;2022-12-17T07:21:58;35.13;;;27.85;;
67715;SDS011;54508;43.238;25.306;2022-12-17T07:24:42;31.80;;;26.73;;
67715;SDS011;54508;43.238;25.306;2022-12-17T07:27:26;29.38;;;24.50;;
67715;SDS011;54508;43.238;25.306;2022-12-17T07:30:10;30.25;;;24.77;;
67715;SDS011;54508;43.238;25.306;2022-12-17T07:33:03;29.77;;;23.30;;
67715;SDS011;54508;43.238;25.306;2022-12-17T07:35:48;24.10;;;20.65;;
67715;SDS011;54508;43.238;25.306;2022-12-17T07:38:32;28.83;;;22.83;;
67715;SDS011;54508;43.238;25.306;2022-12-17T07:41:17;25.83;;;21.55;;
67715;SDS011;54508;43.238;25.306;2022-12-17T07:44:01;23.52;;;20.35;;
67715;SDS011;54508;43.238;25.306;2022-12-17T07:46:45;24.73;;;19.52;;
67715;SDS011;54508;43.238;25.306;2022-12-17T07:49:29;21.25;;;17.55;;
67715;SDS011;54508;43.238;25.306;2022-12-17T07:52:13;18.97;;;15.63;;
67715;SDS011;54508;43.238;25.306;2022-12-17T07:54:57;20.48;;;16.20;;
67715;SDS011;54508;43.238;25.306;2022-12-17T07:57:41;17.17;;;14.65;;
67715;SDS011;54508;43.238;25.306;2022-12-17T08:00:25;18.80;;;14.98;;
67715;SDS011;54508;43.238;25.306;2022-12-17T08:03:09;15.27;;;13.73;;
67715;SDS011;54508;43.238;25.306;2022-12-17T08:05:56;16.97;;;12.77;;
67715;SDS011;54508;43.238;25.306;2022-12-17T08:08:42;14.30;;;12.13;;
67715;SDS011;54508;43.238;25.306;2022-12-17T08:11:37;15.20;;;11.45;;
67715;SDS011;54508;43.238;25.306;2022-12-17T08:14:21;14.05;;;10.38;;
67715;SDS011;54508;43.238;25.306;2022-12-17T08:17:05;11.80;;;10.48;;
67715;SDS011;54508;43.238;25.306;2022-12-17T08:19:50;11.77;;;9.30;;
67715;SDS011;54508;43.238;25.306;2022-12-17T08:22:34;11.35;;;8.13;;
67715;SDS011;54508;43.238;25.306;2022-12-17T08:25:19;9.57;;;8.07;;
67715;SDS011;54508;43.238;25.306;2022-12-17T08:28:03;12.50;;;7.95;;
67715;SDS011;54508;43.238;25.306;2022-12-17T08:30:47;10.95;;;7.40;;
67715;SDS011;54508;43.238;25.306;2022-12-17T08:33:32;13.40;;;7.30;;
67715;SDS011;54508;43.238;25.306;2022-12-17T08:36:16;8.85;;;7.18;;
67715;SDS011;54508;43.238;25.306;2022-12-17T08:39:00;8.98;;;6.85;;
67715;SDS011;54508;43.238;25.306;2022-12-17T08:41:44;11.13;;;6.68;;
67715;SDS011;54508;43.238;25.306;2022-12-17T08:44:28;15.15;;;7.00;;
67715;SDS011;54508;43.238;25.306;2022-12-17T08:47:12;12.13;;;6.30;;
67715;SDS011;54508;43.238;25.306;2022-12-17T08:49:56;9.40;;;6.57;;
67715;SDS011;54508;43.238;25.306;2022-12-17T08:52:39;6.95;;;5.88;;
67715;SDS011;54508;43.238;25.306;2022-12-17T08:55:23;9.88;;;5.82;;
67715;SDS011;54508;43.238;25.306;2022-12-17T08:58:07;8.10;;;6.50;;
67715;SDS011;54508;43.238;25.306;2022-12-17T09:00:51;9.70;;;6.43;;
67715;SDS011;54508;43.238;25.306;2022-12-17T09:03:35;13.40;;;6.35;;
67715;SDS011;54508;43.238;25.306;2022-12-17T09:06:19;13.38;;;6.95;;
67715;SDS011;54508;43.238;25.306;2022-12-17T09:09:03;7.15;;;5.60;;
67715;SDS011;54508;43.238;25.306;2022-12-17T09:11:47;13.45;;;7.07;;
67715;SDS011;54508;43.238;25.306;2022-12-17T09:14:31;14.27;;;6.80;;
67715;SDS011;54508;43.238;25.306;2022-12-17T09:17:15;12.25;;;6.90;;
67715;SDS011;54508;43.238;25.306;2022-12-17T09:19:59;9.43;;;6.78;;
67715;SDS011;54508;43.238;25.306;2022-12-17T09:22:43;10.30;;;6.50;;
67715;SDS011;54508;43.238;25.306;2022-12-17T09:25:27;8.38;;;6.63;;
67715;SDS011;54508;43.238;25.306;2022-12-17T09:28:11;9.30;;;6.33;;
67715;SDS011;54508;43.238;25.306;2022-12-17T09:30:58;8.73;;;6.90;;
67715;SDS011;54508;43.238;25.306;2022-12-17T09:33:43;10.20;;;6.40;;
67715;SDS011;54508;43.238;25.306;2022-12-17T09:36:27;11.13;;;6.40;;
67715;SDS011;54508;43.238;25.306;2022-12-17T09:39:11;10.73;;;5.75;;
67715;SDS011;54508;43.238;25.306;2022-12-17T09:50:57;10.77;;;6.07;;
67715;SDS011;54508;43.238;25.306;2022-12-17T09:53:43;12.38;;;6.80;;
67715;SDS011;54508;43.238;25.306;2022-12-17T09:56:29;9.53;;;6.97;;
67715;SDS011;54508;43.238;25.306;2022-12-17T09:59:19;12.32;;;6.95;;
67715;SDS011;54508;43.238;25.306;2022-12-17T10:02:12;10.85;;;6.90;;
67715;SDS011;54508;43.238;25.306;2022-12-17T10:04:57;10.20;;;7.25;;
67715;SDS011;54508;43.238;25.306;2022-12-17T10:07:42;10.73;;;7.45;;
67715;SDS011;54508;43.238;25.306;2022-12-17T10:10:44;8.23;;;6.90;;
67715;SDS011;54508;43.238;25.306;2022-12-17T10:13:28;11.18;;;7.40;;
67715;SDS011;54508;43.238;25.306;2022-12-17T10:16:20;11.50;;;7.82;;
67715;SDS011;54508;43.238;25.306;2022-12-17T10:22:19;30.83;;;16.05;;
67715;SDS011;54508;43.238;25.306;2022-12-17T10:25:04;27.13;;;16.63;;
67715;SDS011;54508;43.238;25.306;2022-12-17T10:28:24;21.70;;;13.15;;
67715;SDS011;54508;43.238;25.306;2022-12-17T10:31:10;22.98;;;13.48;;
67715;SDS011;54508;43.238;25.306;2022-12-17T10:34:11;20.25;;;11.80;;
67715;SDS011;54508;43.238;25.306;2022-12-17T10:36:57;18.70;;;11.73;;
67715;SDS011;54508;43.238;25.306;2022-12-17T10:39:42;21.27;;;12.13;;
67715;SDS011;54508;43.238;25.306;2022-12-17T10:42:27;27.02;;;11.35;;
67715;SDS011;54508;43.238;25.306;2022-12-17T10:45:32;15.80;;;11.35;;
67715;SDS011;54508;43.238;25.306;2022-12-17T10:48:22;14.65;;;10.65;;
67715;SDS011;54508;43.238;25.306;2022-12-17T10:51:18;21.63;;;11.23;;
67715;SDS011;54508;43.238;25.306;2022-12-17T10:54:26;12.43;;;9.70;;
67715;SDS011;54508;43.238;25.306;2022-12-17T11:03:00;21.42;;;10.23;;
67715;SDS011;54508;43.238;25.306;2022-12-17T11:05:44;14.77;;;9.85;;
67715;SDS011;54508;43.238;25.306;2022-12-17T11:08:28;18.30;;;10.87;;
67715;SDS011;54508;43.238;25.306;2022-12-17T11:11:13;17.95;;;11.15;;
67715;SDS011;54508;43.238;25.306;2022-12-17T11:13:58;17.75;;;12.10;;
67715;SDS011;54508;43.238;25.306;2022-12-17T11:16:45;17.90;;;11.25;;
67715;SDS011;54508;43.238;25.306;2022-12-17T11:19:35;16.02;;;11.77;;
67715;SDS011;54508;43.238;25.306;2022-12-17T11:22:41;19.37;;;12.17;;
67715;SDS011;54508;43.238;25.306;2022-12-17T11:28:28;21.25;;;12.13;;
67715;SDS011;54508;43.238;25.306;2022-12-17T11:44:16;17.20;;;11.65;;
67715;SDS011;54508;43.238;25.306;2022-12-17T11:58:42;19.13;;;10.98;;
67715;SDS011;54508;43.238;25.306;2022-12-17T12:01:40;14.25;;;10.23;;
67715;SDS011;54508;43.238;25.306;2022-12-17T12:07:45;12.90;;;9.20;;
67715;SDS011;54508;43.238;25.306;2022-12-17T12:11:13;14.57;;;9.93;;
67715;SDS011;54508;43.238;25.306;2022-12-17T12:14:01;13.25;;;9.60;;
67715;SDS011;54508;43.238;25.306;2022-12-17T12:16:56;12.90;;;9.05;;
67715;SDS011;54508;43.238;25.306;2022-12-17T12:23:01;13.93;;;9.17;;
67715;SDS011;54508;43.238;25.306;2022-12-17T12:28:51;11.40;;;7.85;;
67715;SDS011;54508;43.238;25.306;2022-12-17T12:31:51;12.13;;;8.93;;
67715;SDS011;54508;43.238;25.306;2022-12-17T12:34:44;11.05;;;7.97;;
67715;SDS011;54508;43.238;25.306;2022-12-17T12:37:28;11.00;;;8.40;;
67715;SDS011;54508;43.238;25.306;2022-12-17T12:43:22;11.85;;;8.55;;
67715;SDS011;54508;43.238;25.306;2022-12-17T12:52:34;11.30;;;8.03;;
67715;SDS011;54508;43.238;25.306;2022-12-17T12:55:19;12.35;;;7.85;;
67715;SDS011;54508;43.238;25.306;2022-12-17T12:58:04;12.27;;;8.10;;
67715;SDS011;54508;43.238;25.306;2022-12-17T13:01:03;12.20;;;8.10;;
67715;SDS011;54508;43.238;25.306;2022-12-17T13:06:38;10.80;;;7.63;;
67715;SDS011;54508;43.238;25.306;2022-12-17T13:17:04;11.18;;;8.38;;
67715;SDS011;54508;43.238;25.306;2022-12-17T13:24:41;12.68;;;8.20;;
67715;SDS011;54508;43.238;25.306;2022-12-17T13:29:58;10.13;;;6.47;;
67715;SDS011;54508;43.238;25.306;2022-12-17T13:33:15;9.38;;;6.72;;
67715;SDS011;54508;43.238;25.306;2022-12-17T13:38:48;12.57;;;7.82;;
67715;SDS011;54508;43.238;25.306;2022-12-17T13:41:17;13.23;;;7.13;;
67715;SDS011;54508;43.238;25.306;2022-12-17T13:43:53;9.63;;;6.90;;
67715;SDS011;54508;43.238;25.306;2022-12-17T13:48:57;8.63;;;6.53;;
67715;SDS011;54508;43.238;25.306;2022-12-17T13:51:31;11.93;;;7.22;;
67715;SDS011;54508;43.238;25.306;2022-12-17T13:54:02;8.80;;;6.55;;
67715;SDS011;54508;43.238;25.306;2022-12-17T13:56:35;10.27;;;6.88;;
67715;SDS011;54508;43.238;25.306;2022-12-17T13:59:02;11.25;;;6.72;;
67715;SDS011;54508;43.238;25.306;2022-12-17T14:01:29;8.43;;;7.15;;
67715;SDS011;54508;43.238;25.306;2022-12-17T14:03:56;8.48;;;6.70;;
67715;SDS011;54508;43.238;25.306;2022-12-17T14:06:26;10.98;;;7.07;;
67715;SDS011;54508;43.238;25.306;2022-12-17T14:08:54;9.60;;;6.75;;
67715;SDS011;54508;43.238;25.306;2022-12-17T14:11:20;9.50;;;6.80;;
67715;SDS011;54508;43.238;25.306;2022-12-17T14:14:16;8.95;;;6.70;;
67715;SDS011;54508;43.238;25.306;2022-12-17T14:16:43;11.00;;;7.30;;
67715;SDS011;54508;43.238;25.306;2022-12-17T14:19:08;8.93;;;6.55;;
67715;SDS011;54508;43.238;25.306;2022-12-17T14:21:35;9.60;;;6.93;;
67715;SDS011;54508;43.238;25.306;2022-12-17T14:24:01;8.93;;;6.77;;
67715;SDS011;54508;43.238;25.306;2022-12-17T14:26:27;9.05;;;6.90;;
67715;SDS011;54508;43.238;25.306;2022-12-17T14:28:53;10.15;;;7.47;;
67715;SDS011;54508;43.238;25.306;2022-12-17T14:31:23;10.73;;;6.83;;
67715;SDS011;54508;43.238;25.306;2022-12-17T14:34:05;9.70;;;7.20;;
67715;SDS011;54508;43.238;25.306;2022-12-17T14:36:32;10.73;;;7.28;;
67715;SDS011;54508;43.238;25.306;2022-12-17T14:39:00;11.75;;;6.85;;
67715;SDS011;54508;43.238;25.306;2022-12-17T14:41:27;9.85;;;7.38;;
67715;SDS011;54508;43.238;25.306;2022-12-17T14:44:19;12.40;;;7.37;;
67715;SDS011;54508;43.238;25.306;2022-12-17T14:46:46;10.98;;;7.22;;
67715;SDS011;54508;43.238;25.306;2022-12-17T14:49:18;9.02;;;6.97;;
67715;SDS011;54508;43.238;25.306;2022-12-17T14:51:45;10.52;;;7.43;;
67715;SDS011;54508;43.238;25.306;2022-12-17T14:57:06;11.00;;;7.70;;
67715;SDS011;54508;43.238;25.306;2022-12-17T14:59:44;8.35;;;6.40;;
67715;SDS011;54508;43.238;25.306;2022-12-17T15:04:44;10.32;;;7.35;;
67715;SDS011;54508;43.238;25.306;2022-12-17T15:07:11;9.48;;;7.20;;
67715;SDS011;54508;43.238;25.306;2022-12-17T15:09:38;8.73;;;6.93;;
67715;SDS011;54508;43.238;25.306;2022-12-17T15:12:06;10.88;;;7.47;;
67715;SDS011;54508;43.238;25.306;2022-12-17T15:14:31;11.25;;;7.35;;
67715;SDS011;54508;43.238;25.306;2022-12-17T15:16:57;10.87;;;6.73;;
67715;SDS011;54508;43.238;25.306;2022-12-17T15:19:23;10.55;;;7.15;;
67715;SDS011;54508;43.238;25.306;2022-12-17T15:21:49;10.73;;;7.23;;
67715;SDS011;54508;43.238;25.306;2022-12-17T15:24:16;9.18;;;6.95;;
67715;SDS011;54508;43.238;25.306;2022-12-17T15:26:43;9.52;;;6.85;;
67715;SDS011;54508;43.238;25.306;2022-12-17T15:29:09;10.43;;;7.55;;
67715;SDS011;54508;43.238;25.306;2022-12-17T15:31:35;7.83;;;6.87;;
67715;SDS011;54508;43.238;25.306;2022-12-17T15:34:01;11.17;;;7.00;;
67715;SDS011;54508;43.238;25.306;2022-12-17T15:36:26;8.93;;;6.45;;
67715;SDS011;54508;43.238;25.306;2022-12-17T15:38:51;11.40;;;7.00;;
67715;SDS011;54508;43.238;25.306;2022-12-17T15:41:17;10.47;;;6.53;;
67715;SDS011;54508;43.238;25.306;2022-12-17T15:44:01;8.77;;;6.85;;
67715;SDS011;54508;43.238;25.306;2022-12-17T15:46:27;8.57;;;6.30;;
67715;SDS011;54508;43.238;25.306;2022-12-17T15:48:54;8.35;;;6.15;;
67715;SDS011;54508;43.238;25.306;2022-12-17T15:51:20;8.32;;;6.53;;
67715;SDS011;54508;43.238;25.306;2022-12-17T15:53:47;9.35;;;6.70;;
67715;SDS011;54508;43.238;25.306;2022-12-17T15:56:14;11.77;;;6.70;;
67715;SDS011;54508;43.238;25.306;2022-12-17T15:58:47;7.88;;;6.22;;
67715;SDS011;54508;43.238;25.306;2022-12-17T16:01:12;9.23;;;6.07;;
67715;SDS011;54508;43.238;25.306;2022-12-17T16:03:38;8.57;;;6.18;;
67715;SDS011;54508;43.238;25.306;2022-12-17T16:06:04;8.60;;;6.27;;
67715;SDS011;54508;43.238;25.306;2022-12-17T16:08:29;8.48;;;5.90;;
67715;SDS011;54508;43.238;25.306;2022-12-17T16:10:55;8.67;;;6.20;;
67715;SDS011;54508;43.238;25.306;2022-12-17T16:13:20;9.63;;;6.67;;
67715;SDS011;54508;43.238;25.306;2022-12-17T16:15:53;9.50;;;5.90;;
67715;SDS011;54508;43.238;25.306;2022-12-17T16:18:20;8.10;;;6.20;;
67715;SDS011;54508;43.238;25.306;2022-12-17T16:20:46;8.52;;;6.80;;
67715;SDS011;54508;43.238;25.306;2022-12-17T16:23:12;7.60;;;5.90;;
67715;SDS011;54508;43.238;25.306;2022-12-17T16:25:37;9.40;;;6.63;;
67715;SDS011;54508;43.238;25.306;2022-12-17T16:28:03;11.45;;;7.00;;
67715;SDS011;54508;43.238;25.306;2022-12-17T16:30:28;9.47;;;5.90;;
67715;SDS011;54508;43.238;25.306;2022-12-17T16:32:56;11.00;;;7.30;;
67715;SDS011;54508;43.238;25.306;2022-12-17T16:35:22;9.85;;;6.80;;
67715;SDS011;54508;43.238;25.306;2022-12-17T16:37:48;9.67;;;6.53;;
67715;SDS011;54508;43.238;25.306;2022-12-17T16:40:13;8.48;;;5.93;;
67715;SDS011;54508;43.238;25.306;2022-12-17T16:42:39;8.80;;;6.15;;
67715;SDS011;54508;43.238;25.306;2022-12-17T16:45:04;9.10;;;6.30;;
67715;SDS011;54508;43.238;25.306;2022-12-17T16:47:30;10.05;;;6.55;;
67715;SDS011;54508;43.238;25.306;2022-12-17T16:49:56;10.67;;;6.53;;
67715;SDS011;54508;43.238;25.306;2022-12-17T16:52:21;9.33;;;6.20;;
67715;SDS011;54508;43.238;25.306;2022-12-17T16:54:47;10.05;;;7.00;;
67715;SDS011;54508;43.238;25.306;2022-12-17T16:57:12;9.53;;;6.90;;
67715;SDS011;54508;43.238;25.306;2022-12-17T16:59:38;9.43;;;6.73;;
67715;SDS011;54508;43.238;25.306;2022-12-17T17:02:03;9.43;;;6.90;;
67715;SDS011;54508;43.238;25.306;2022-12-17T17:04:29;12.07;;;7.97;;
67715;SDS011;54508;43.238;25.306;2022-12-17T17:06:55;10.20;;;6.90;;
67715;SDS011;54508;43.238;25.306;2022-12-17T17:09:21;9.65;;;6.97;;
67715;SDS011;54508;43.238;25.306;2022-12-17T17:11:47;10.68;;;7.22;;
67715;SDS011;54508;43.238;25.306;2022-12-17T17:14:13;12.50;;;7.80;;
67715;SDS011;54508;43.238;25.306;2022-12-17T17:16:39;11.27;;;7.70;;
67715;SDS011;54508;43.238;25.306;2022-12-17T17:19:04;9.53;;;7.40;;
67715;SDS011;54508;43.238;25.306;2022-12-17T17:21:34;13.38;;;8.10;;
67715;SDS011;54508;43.238;25.306;2022-12-17T17:24:08;11.05;;;7.60;;
67715;SDS011;54508;43.238;25.306;2022-12-17T17:26:35;13.05;;;7.50;;
67715;SDS011;54508;43.238;25.306;2022-12-17T17:29:01;10.17;;;7.33;;
67715;SDS011;54508;43.238;25.306;2022-12-17T17:31:27;10.85;;;7.70;;
67715;SDS011;54508;43.238;25.306;2022-12-17T17:33:52;12.50;;;8.40;;